• Join FlightAware (Why Join?)
  • Login
  • US Flag 
05:53PM EDT


 

Airport Tracker/Info


-or-


 

Live Flight TrackerFlight Track Log ✈ UAL252 ✈ 15-Jun-2013 ✈ KDCA - KIAH

Flight Track Log - Related Links

Times and Time Zones

All times are in EDT time to prevent confusion due to time zone crossing. See the UAL252 flight status page for this flight to view local times or setup timezone preferences in your user account.

Time Position Orientation Groundspeed Altitude Reporting Facility
EDT Latitude Longitude Course Direction KTS MPH feet Rate Location/Type
07:53AM 38.8833 -77.0667 218° Southwest 171 197 2,000  Level Potomac TRACON
07:54AM 38.9333 -77.1167 322° Northwest 232 267 4,400 2,940 Climbing Potomac TRACON
07:55AM 38.6586 -77.3933 234° Southwest  Level FlightAware Approximate
07:55AM 38.9833 -77.1833 314° West 261 300 7,900  Level Potomac TRACON
07:56AM 38.5995 -77.5181 247° West  Level FlightAware Approximate
07:56AM 38.9833 -77.2500 270° West 279 321 9,600  Level Potomac TRACON
07:57AM 38.5429 -77.6451 233° Southwest  Level FlightAware Approximate
07:57AM 38.9000 -77.3333 218° Southwest 339 390 11,900  Level Potomac TRACON
07:58AM 38.4729 -77.7604 218° Southwest  Level FlightAware Approximate
07:58AM 38.8333 -77.4000 218° Southwest 358 412 14,500  Level Potomac TRACON
07:59AM 38.7500 -77.4833 218° Southwest 377 434 16,800 2,220 Climbing Potomac TRACON
08:01AM 38.5894 -77.6475 219° Southwest 397 457 21,200 2,100 Climbing Washington Center
08:02AM 38.5022 -77.7381 219° Southwest 402 463 23,100 1,800 Climbing Washington Center
08:03AM 38.4375 -77.8581 235° Southwest 402 463 24,800 1,500 Climbing Washington Center
08:04AM 38.3767 -77.9806 238° Southwest 413 475 26,200 1,440 Climbing Washington Center
08:05AM 38.3075 -78.1081 235° Southwest 431 496 27,700 900 Climbing Washington Center
08:06AM 38.2422 -78.2356 237° Southwest 437 503 28,000 240 Climbing Washington Center
08:07AM 38.1725 -78.3650 236° Southwest 437 503 28,300 660 Climbing Washington Center
08:08AM 38.1108 -78.5000 240° Southwest 437 503 29,400 1,080 Climbing Washington Center
08:09AM 38.0681 -78.6275 247° West 437 503 30,500 1,200 Climbing Washington Center
08:10AM 38.0186 -78.7731 247° West 443 510 31,800 1,320 Climbing Washington Center
08:11AM 37.9639 -78.9369 247° West 460 529 33,100 1,080 Climbing Washington Center
08:12AM 37.9117 -79.0844 246° West 467 537 34,000 1,080 Climbing Washington Center
08:13AM 37.8447 -79.2314 240° Southwest 473 544 35,300 1,140 Climbing Washington Center
08:14AM 37.7825 -79.3572 238° Southwest 473 544 36,300 1,140 Climbing Washington Center
08:15AM 37.7133 -79.4981 238° Southwest 478 550 37,600 840 Climbing Washington Center
08:16AM 37.6356 -79.6461 236° Southwest 472 543 38,000 180 Climbing Washington Center
08:16AM 37.5731 -79.7633 236° Southwest 461 531 38,000  Level Washington Center
08:18AM 37.4319 -80.0431 238° Southwest 482 555 38,000  Level Atlanta Center
08:19AM 37.3633 -80.1797 238° Southwest 474 545 38,000  Level Atlanta Center
08:20AM 37.3022 -80.2925 236° Southwest 464 534 38,000  Level Atlanta Center
08:21AM 37.2333 -80.4258 237° Southwest 464 534 38,000  Level Atlanta Center
08:22AM 37.1661 -80.5567 237° Southwest 464 534 38,000  Level Atlanta Center
08:23AM 37.0889 -80.7058 237° Southwest 464 534 38,000  Level Atlanta Center
08:24AM 37.0236 -80.8358 238° Southwest 464 534 38,000  Level Atlanta Center
08:25AM 36.9542 -80.9686 237° Southwest 464 534 38,000 -60 Level Atlanta Center
08:26AM 36.8886 -81.0983 238° Southwest 459 528 37,900 -60 Descending Atlanta Center
08:27AM 36.8286 -81.2172 238° Southwest 459 528 37,900  Level Atlanta Center
08:28AM 36.7569 -81.3650 239° Southwest 459 528 38,000  Climbing Atlanta Center
08:29AM 36.6889 -81.4992 238° Southwest 453 521 38,000  Level Atlanta Center
08:30AM 36.6167 -81.6333 236° Southwest 467 537 38,000  Level Atlanta Center
08:31AM 36.5461 -81.7672 237° Southwest 467 537 38,000  Level Atlanta Center
08:32AM 36.4958 -81.8719 239° Southwest 467 537 38,000 -60 Level Atlanta Center
08:33AM 36.4089 -82.0292 236° Southwest 467 537 37,900 -60 Descending Atlanta Center
08:34AM 36.3400 -82.1597 237° Southwest 462 532 37,900  Level Atlanta Center
08:35AM 36.2711 -82.2900 237° Southwest 462 532 38,000  Climbing Atlanta Center
08:36AM 36.2000 -82.4256 237° Southwest 462 532 38,000  Level Atlanta Center
08:37AM 36.1306 -82.5553 236° Southwest 462 532 38,000  Level Atlanta Center
08:38AM 36.0653 -82.6772 237° Southwest 462 532 38,000  Level Atlanta Center
08:39AM 35.9936 -82.8119 237° Southwest 467 537 38,000  Level Atlanta Center
08:40AM 35.9219 -82.9439 236° Southwest 467 537 38,000  Level Atlanta Center
08:41AM 35.8500 -83.0781 237° Southwest 467 537 38,000  Level Atlanta Center
08:42AM 35.7800 -83.2094 237° Southwest 467 537 38,000  Level Atlanta Center
08:43AM 35.7122 -83.3381 237° Southwest 461 531 38,000  Level Atlanta Center
08:44AM 35.6397 -83.4689 236° Southwest 461 531 38,000 -360 Level Atlanta Center
08:45AM 35.5672 -83.5972 235° Southwest 466 536 37,300 -900 Descending Atlanta Center
08:46AM 35.4967 -83.7275 236° Southwest 461 531 36,200 -1,140 Descending Atlanta Center
08:47AM 35.4281 -83.8528 236° Southwest 461 531 35,100 -600 Descending Atlanta Center
08:48AM 35.3594 -83.9750 235° Southwest 455 524 35,000 -480 Descending Atlanta Center
08:49AM 35.2928 -84.0947 236° Southwest 442 509 34,200 -540 Descending Atlanta Center
08:50AM 35.2258 -84.2192 237° Southwest 442 509 34,000 -120 Descending Atlanta Center
08:51AM 35.1567 -84.3386 235° Southwest 442 509 34,000  Level Atlanta Center
08:52AM 35.0917 -84.4575 236° Southwest 442 509 34,000  Level Atlanta Center
08:53AM 35.0203 -84.5814 235° Southwest 447 514 34,000  Level Atlanta Center
08:54AM 34.9486 -84.7078 235° Southwest 452 520 34,000  Level Atlanta Center
08:55AM 34.8811 -84.8289 236° Southwest 447 514 34,000 -60 Level Atlanta Center
08:56AM 34.8094 -84.9544 235° Southwest 447 514 33,900 -60 Descending Atlanta Center
08:57AM 34.7331 -85.0903 236° Southwest 447 514 33,900  Level Atlanta Center
08:58AM 34.6611 -85.2156 235° Southwest 447 514 34,000  Climbing Atlanta Center
08:59AM 34.5889 -85.3381 234° Southwest 447 514 34,000  Level Atlanta Center
09:00AM 34.5164 -85.4631 235° Southwest 447 514 34,000  Level Atlanta Center
09:01AM 34.4461 -85.5878 236° Southwest 452 520 34,000  Level Atlanta Center
09:02AM 34.3819 -85.7025 236° Southwest 452 520 34,000  Level Atlanta Center
09:03AM 34.3008 -85.8342 233° Southwest 452 520 34,000  Level Atlanta Center
09:04AM 34.2281 -85.9558 234° Southwest 452 520 34,000  Level Atlanta Center
09:05AM 34.1572 -86.0822 236° Southwest 452 520 34,000  Level Atlanta Center
09:06AM 34.0819 -86.2058 234° Southwest 452 520 34,000  Level Atlanta Center
09:07AM 34.0067 -86.3317 234° Southwest 458 527 34,000  Level Atlanta Center
09:08AM 33.9333 -86.4550 234° Southwest 463 533 34,000  Level Atlanta Center
09:09AM 33.8578 -86.5803 234° Southwest 463 533 34,000  Level Atlanta Center
09:10AM 33.7908 -86.6933 235° Southwest 463 533 34,000  Level Atlanta Center
09:11AM 33.7169 -86.8208 235° Southwest 463 533 34,000  Level Atlanta Center
09:12AM 33.6472 -86.9483 237° Southwest 463 533 34,000  Level Atlanta Center
09:13AM 33.5917 -87.0886 245° Southwest 463 533 34,000  Level Atlanta Center
09:14AM 33.5381 -87.2214 244° Southwest 458 527 34,000  Level Atlanta Center
09:16AM 33.4381 -87.4744 245° Southwest 464 534 34,000  Level Memphis Center
09:17AM 33.3806 -87.6108 243° Southwest 464 534 34,000  Level Memphis Center
09:18AM 33.3250 -87.7517 245° Southwest 464 534 34,000  Level Memphis Center
09:19AM 33.2694 -87.8875 244° Southwest 464 534 34,000  Level Memphis Center
09:20AM 33.2117 -88.0281 244° Southwest 464 534 34,000  Level Memphis Center
09:21AM 33.1556 -88.1661 244° Southwest 470 541 34,000  Level Memphis Center
09:22AM 33.1058 -88.3014 246° West 465 535 34,000  Level Memphis Center
09:23AM 33.0475 -88.4364 243° Southwest 465 535 34,000  Level Memphis Center
09:24AM 32.9931 -88.5714 244° Southwest 465 535 34,000  Level Memphis Center
09:25AM 32.9344 -88.7089 243° Southwest 465 535 34,000  Level Memphis Center
09:26AM 32.8756 -88.8458 243° Southwest 465 535 34,000  Level Memphis Center
09:27AM 32.8186 -88.9778 243° Southwest 465 535 34,000  Level Memphis Center
09:28AM 32.7617 -89.1147 244° Southwest 465 535 34,000  Level Memphis Center
09:29AM 32.7044 -89.2489 243° Southwest 465 535 34,000  Level Memphis Center
09:30AM 32.6450 -89.3878 243° Southwest 465 535 34,000  Level Memphis Center
09:31AM 32.5856 -89.5214 242° Southwest 465 535 34,000  Level Memphis Center
09:32AM 32.5281 -89.6550 243° Southwest 465 535 34,000  Level Memphis Center
09:33AM 32.4703 -89.7911 243° Southwest 465 535 34,000  Level Memphis Center
09:34AM 32.4103 -89.9267 242° Southwest 465 535 34,000  Level Memphis Center
09:35AM 32.3542 -90.0597 243° Southwest 465 535 34,000  Level Memphis Center
09:36AM 32.2961 -90.1928 243° Southwest 465 535 34,000  Level Memphis Center
09:37AM 32.2378 -90.3253 243° Southwest 460 529 34,000 -60 Level Memphis Center
09:39AM 32.1331 -90.5681 243° Southwest 454 522 33,900 -60 Descending Houston Center
09:40AM 32.0742 -90.7011 242° Southwest 458 527 33,900  Level Houston Center
09:41AM 32.0128 -90.8383 242° Southwest 456 525 34,000  Climbing Houston Center
09:42AM 31.9444 -90.9958 243° Southwest 452 520 34,000  Level Houston Center
09:43AM 31.8847 -91.1261 242° Southwest 454 522 34,000  Level Houston Center
09:44AM 31.8264 -91.2564 242° Southwest 451 519 34,000  Level Houston Center
09:45AM 31.7678 -91.3861 242° Southwest 450 518 34,000  Level Houston Center
09:46AM 31.7083 -91.5167 242° Southwest 453 521 34,000  Level Houston Center
09:47AM 31.6506 -91.6453 242° Southwest 448 516 34,000 -60 Level Houston Center
09:48AM 31.5906 -91.7750 242° Southwest 452 520 33,900  Descending Houston Center
09:49AM 31.5328 -91.9022 242° Southwest 446 513 34,000  Climbing Houston Center
09:50AM 31.4689 -92.0411 242° Southwest 449 517 33,900 -60 Descending Houston Center
09:51AM 31.4092 -92.1672 241° Southwest 444 511 33,900  Level Houston Center
09:52AM 31.3497 -92.2964 242° Southwest 451 519 33,900  Level Houston Center
09:54AM 31.2769 -92.4517 241° Southwest 458 527 33,900  Level Houston Center
09:55AM 31.2117 -92.5783 239° Southwest 457 526 33,900  Level Houston Center
09:56AM 31.1408 -92.7050 237° Southwest 464 534 33,900  Level Houston Center
09:57AM 31.0706 -92.8303 237° Southwest 459 528 33,900 -840 Level Houston Center
09:58AM 30.9997 -92.9583 237° Southwest 459 528 32,200 -1,740 Descending Houston Center
09:59AM 30.9297 -93.0819 237° Southwest 470 541 30,400 -1,680 Descending Houston Center
10:00AM 30.8589 -93.2072 237° Southwest 465 535 28,800 -1,800 Descending Houston Center
10:01AM 30.7750 -93.3603 237° Southwest 468 539 26,800 -1,620 Descending Houston Center
10:02AM 30.7036 -93.4853 236° Southwest 469 540 25,500 -1,500 Descending Houston Center
10:03AM 30.6356 -93.6047 237° Southwest 456 525 23,800 -1,740 Descending Houston Center
10:04AM 30.5700 -93.7172 236° Southwest 432 497 22,000 -1,860 Descending Houston Center
10:05AM 30.5069 -93.8292 237° Southwest 421 484 20,100 -1,860 Descending Houston Center
10:06AM 30.4450 -93.9367 236° Southwest 409 471 18,200 -2,040 Descending Houston Center
10:07AM 30.3772 -94.0525 236° Southwest 401 461 16,300 -1,980 Descending Houston Center
10:08AM 30.3200 -94.1522 236° Southwest 389 448 14,500 -1,860 Descending Houston Center
10:09AM 30.2572 -94.2600 236° Southwest 376 433 12,600 -1,320 Descending Houston Center
10:10AM 30.2025 -94.3639 239° Southwest 360 414 11,800 -1,320 Descending Houston Center
10:11AM 30.1650 -94.4536 244° Southwest 340 391 10,100 -1,560 Descending Houston Center
10:11AM 30.1606 -94.4689 251° West 343 395 10,000 -420 Descending Houston Center
10:12AM 30.1178 -94.5708 244° Southwest 308 354 9,600 -840 Descending Houston Center
10:13AM 30.0908 -94.6394 246° West 303 349 8,600 -1,140 Descending Houston Center
10:13AM 30.0858 -94.6508 243° Southwest 306 352 8,400 -1,440 Descending Houston Center
10:14AM 30.0561 -94.7381 249° West 280 322 7,000 -1,560 Descending Houston Center
10:15AM 30.0306 -94.8211 250° West 280 322 5,600 -1,200 Descending Houston Center
10:16AM 30.0022 -94.9181 251° West 271 312 4,400 -1,080 Descending Houston Center
10:17AM 29.9839 -94.9717 248° West 266 306 3,700 -1,020 Descending Houston Center
10:17AM 29.9772 -94.9983 254° West 266 306 3,400 -900 Descending Houston Center
10:18AM 29.9783 -95.0806 271° West 259 298 2,400 -1,020 Descending Houston Center